createdAt,value
2022-10-08T00:01:18.178Z,96482.25
2022-10-08T00:04:19.892Z,96478.72
2022-10-08T00:07:22.484Z,96477.03
2022-10-08T00:10:24.092Z,96476.19
2022-10-08T00:13:28.395Z,96471.31
2022-10-08T00:16:34.032Z,96472.16
2022-10-08T00:19:35.943Z,96481.31
2022-10-08T00:22:37.562Z,96474.13
2022-10-08T00:25:43.981Z,96474.28
2022-10-08T00:28:47.157Z,96488.47
2022-10-08T00:31:50.715Z,96470.06
2022-10-08T00:34:52.344Z,96473.59
2022-10-08T00:37:53.974Z,96464.91
2022-10-08T00:40:56.008Z,96464.06
2022-10-08T00:44:00.188Z,96464.22
2022-10-08T00:47:01.868Z,96461.69
2022-10-08T00:50:09.394Z,96454.81
2022-10-08T00:53:11.101Z,96448.66
2022-10-08T00:56:13.299Z,96446.13
2022-10-08T00:59:15.769Z,96452.47
2022-10-08T01:02:19.330Z,96442.22
2022-10-08T01:05:51.271Z,96445.72
2022-10-08T01:09:06.925Z,96439.53
2022-10-08T01:12:25.879Z,96432.56
2022-10-08T01:15:41.163Z,96435.38
2022-10-08T01:18:52.086Z,96439.03
2022-10-08T01:22:20.570Z,96441.84
2022-10-08T01:25:34.680Z,96434.81
2022-10-08T01:28:48.148Z,96430.47
2022-10-08T01:31:57.719Z,96432.16
2022-10-08T01:35:09.950Z,96428.81
2022-10-08T01:38:16.699Z,96421.78
2022-10-08T01:41:20.191Z,96422.78
2022-10-08T01:44:34.956Z,96427.13
2022-10-08T01:47:41.006Z,96422.91
2022-10-08T01:51:13.849Z,96420.25
2022-10-08T01:54:17.444Z,96411.13
2022-10-08T01:57:19.128Z,96414.63
2022-10-08T02:00:20.800Z,96404.94
2022-10-08T02:03:22.842Z,96407.47
2022-10-08T02:06:24.683Z,96413.47
2022-10-08T02:09:27.821Z,96407.13
2022-10-08T02:12:29.877Z,96400.81
2022-10-08T02:15:46.375Z,96407.00
2022-10-08T02:18:56.396Z,96402.50
2022-10-08T02:21:59.888Z,96405.16
2022-10-08T02:25:11.433Z,96402.66
2022-10-08T02:28:24.328Z,96404.47
2022-10-08T02:31:36.962Z,96405.47
2022-10-08T02:34:44.540Z,96396.94
2022-10-08T02:37:55.984Z,96407.47
2022-10-08T02:41:01.793Z,96400.59
2022-10-08T02:44:09.452Z,96400.72
2022-10-08T02:47:16.289Z,96405.38
2022-10-08T02:50:23.139Z,96395.84
2022-10-08T02:53:25.797Z,96404.72
2022-10-08T02:56:35.553Z,96403.31
2022-10-08T02:59:37.901Z,96413.13
2022-10-08T03:02:58.438Z,96404.47
2022-10-08T03:06:04.926Z,96404.63
2022-10-08T03:09:08.614Z,96405.47
2022-10-08T03:12:10.761Z,96405.47
2022-10-08T03:15:14.791Z,96409.94
2022-10-08T03:18:17.065Z,96404.91
2022-10-08T03:21:19.296Z,96408.41
2022-10-08T03:24:20.905Z,96413.88
2022-10-08T03:27:22.578Z,96407.72
2022-10-08T03:30:24.405Z,96400.72
2022-10-08T03:33:26.089Z,96406.06
2022-10-08T03:36:29.136Z,96407.72
2022-10-08T03:39:30.761Z,96404.38
2022-10-08T03:42:32.378Z,96403.53
2022-10-08T03:45:34.017Z,96406.34
2022-10-08T03:48:35.917Z,96414.50
2022-10-08T03:51:37.556Z,96413.50
2022-10-08T03:54:39.214Z,96416.31
2022-10-08T03:57:40.898Z,96411.97
2022-10-08T04:00:42.991Z,96411.28
2022-10-08T04:03:47.900Z,96417.63
2022-10-08T04:06:49.503Z,96426.59
2022-10-08T04:09:51.089Z,96417.91
2022-10-08T04:12:52.692Z,96420.75
2022-10-08T04:16:00.722Z,96423.69
2022-10-08T04:19:02.506Z,96425.50
2022-10-08T04:22:04.111Z,96424.81
2022-10-08T04:25:05.801Z,96429.31
2022-10-08T04:28:07.459Z,96421.47
2022-10-08T04:31:17.176Z,96426.97
2022-10-08T04:34:19.109Z,96433.28
2022-10-08T04:37:22.516Z,96430.75
2022-10-08T04:40:24.200Z,96439.72
2022-10-08T04:43:25.890Z,96439.72
2022-10-08T04:46:28.403Z,96444.06
2022-10-08T04:49:30.398Z,96433.28
2022-10-08T04:52:32.216Z,96429.63
2022-10-08T04:55:34.087Z,96435.34
2022-10-08T04:58:35.785Z,96432.81
2022-10-08T05:01:37.480Z,96432.22
2022-10-08T05:04:39.145Z,96443.44
2022-10-08T05:07:40.755Z,96432.63
2022-10-08T05:10:48.612Z,96436.81
2022-10-08T05:13:51.832Z,96438.34
2022-10-08T05:16:53.459Z,96449.59
2022-10-08T05:19:55.071Z,96441.41
2022-10-08T05:22:56.733Z,96439.28
2022-10-08T05:25:58.418Z,96449.66
2022-10-08T05:29:00.548Z,96444.72
2022-10-08T05:32:02.400Z,96437.38
2022-10-08T05:35:04.308Z,96444.13
2022-10-08T05:38:05.913Z,96444.66
2022-10-08T05:41:20.086Z,96447.88
2022-10-08T05:44:22.730Z,96452.88
2022-10-08T05:47:27.534Z,96441.22
2022-10-08T05:50:29.221Z,96446.97
2022-10-08T05:53:31.250Z,96442.31
2022-10-08T05:56:32.905Z,96447.22
2022-10-08T05:59:34.500Z,96459.09
2022-10-08T06:02:36.148Z,96457.81
2022-10-08T06:05:37.925Z,96463.69
2022-10-08T06:08:39.516Z,96458.03
2022-10-08T06:11:42.647Z,96463.91
2022-10-08T06:14:44.259Z,96465.28
2022-10-08T06:17:45.871Z,96469.34
2022-10-08T06:20:47.484Z,96475.06
2022-10-08T06:23:54.201Z,96470.94
2022-10-08T06:26:55.845Z,96470.38
2022-10-08T06:29:57.485Z,96475.94
2022-10-08T06:32:59.074Z,96473.63
2022-10-08T06:36:14.389Z,96478.34
2022-10-08T06:39:17.923Z,96474.41
2022-10-08T06:42:20.106Z,96489.47
2022-10-08T06:45:21.719Z,96488.00
2022-10-08T06:48:23.702Z,96487.25
2022-10-08T06:51:25.329Z,96493.13
2022-10-08T06:54:27.497Z,96495.03
2022-10-08T06:57:29.083Z,96511.97
2022-10-08T07:00:30.895Z,96511.34
2022-10-08T07:03:33.202Z,96506.06
2022-10-08T07:06:35.269Z,96510.75
2022-10-08T07:09:36.887Z,96507.31
2022-10-08T07:12:38.534Z,96511.19
2022-10-08T07:15:41.695Z,96513.91
2022-10-08T07:18:43.935Z,96507.06
2022-10-08T07:21:45.567Z,96512.31
2022-10-08T07:24:47.217Z,96514.19
2022-10-08T07:27:48.811Z,96512.84
2022-10-08T07:30:50.503Z,96524.44
2022-10-08T07:33:52.701Z,96524.63
2022-10-08T07:36:54.396Z,96534.56
2022-10-08T07:39:56.036Z,96523.56
2022-10-08T07:42:57.578Z,96535.09
2022-10-08T07:45:59.317Z,96532.63
2022-10-08T07:49:05.148Z,96533.84
2022-10-08T07:52:08.101Z,96530.66
2022-10-08T07:55:09.749Z,96540.56
2022-10-08T07:58:11.449Z,96543.41
2022-10-08T08:01:16.170Z,96541.91
2022-10-08T08:04:17.905Z,96544.78
2022-10-08T08:07:19.634Z,96542.28
2022-10-08T08:10:21.301Z,96546.81
2022-10-08T08:13:23.026Z,96546.66
2022-10-08T08:16:27.132Z,96545.84
2022-10-08T08:19:28.830Z,96538.63
2022-10-08T08:22:30.845Z,96538.63
2022-10-08T08:25:33.194Z,96551.03
2022-10-08T08:28:35.204Z,96549.84
2022-10-08T08:31:40.161Z,96556.06
2022-10-08T08:34:41.863Z,96543.50
2022-10-08T08:37:43.523Z,96551.19
2022-10-08T08:40:45.717Z,96539.78
2022-10-08T08:43:47.805Z,96542.28
2022-10-08T08:46:55.577Z,96556.84
2022-10-08T08:50:01.727Z,96554.47
2022-10-08T08:53:05.022Z,96556.16
2022-10-08T08:56:10.733Z,96555.28
2022-10-08T08:59:31.385Z,96559.13
2022-10-08T09:02:38.504Z,96562.16
2022-10-08T09:05:44.185Z,96569.66
2022-10-08T09:09:17.669Z,96569.97
2022-10-08T09:12:25.521Z,96569.28
2022-10-08T09:15:34.554Z,96576.66
2022-10-08T09:18:37.647Z,96570.59
2022-10-08T09:21:39.432Z,96579.97
2022-10-08T09:24:43.540Z,96566.03
2022-10-08T09:27:48.134Z,96568.47
2022-10-08T09:30:49.775Z,96564.78
2022-10-08T09:33:59.949Z,96557.84
2022-10-08T09:37:01.765Z,96566.91
2022-10-08T09:40:18.461Z,96580.69
2022-10-08T09:43:22.211Z,96579.31
2022-10-08T09:46:31.285Z,96572.38
2022-10-08T09:49:35.673Z,96579.94
2022-10-08T09:52:40.950Z,96579.03
2022-10-08T09:55:50.868Z,96581.66
2022-10-08T09:58:58.782Z,96582.31
2022-10-08T10:02:00.462Z,96580.75
2022-10-08T10:05:06.002Z,96581.91
2022-10-08T10:08:46.343Z,96582.19
2022-10-08T10:12:01.420Z,96586.19
2022-10-08T10:15:11.528Z,96581.31
2022-10-08T10:18:20.861Z,96576.75
2022-10-08T10:21:40.053Z,96571.19
2022-10-08T10:24:51.259Z,96577.03
2022-10-08T10:28:00.263Z,96575.38
2022-10-08T10:31:07.547Z,96582.44
2022-10-08T10:34:17.982Z,96581.25
2022-10-08T10:37:29.942Z,96576.69
2022-10-08T10:40:45.892Z,96580.84
2022-10-08T10:43:54.422Z,96579.00
2022-10-08T10:46:59.339Z,96584.22
2022-10-08T10:50:01.982Z,96582.72
2022-10-08T10:53:24.888Z,96577.31
2022-10-08T10:56:30.933Z,96577.69
2022-10-08T10:59:38.544Z,96578.06
2022-10-08T11:02:46.382Z,96582.81
2022-10-08T11:05:54.611Z,96575.53
2022-10-08T11:09:04.998Z,96579.91
2022-10-08T11:12:37.384Z,96568.31
2022-10-08T11:16:05.434Z,96575.53
2022-10-08T11:19:21.649Z,96568.50
2022-10-08T11:22:35.168Z,96571.19
2022-10-08T11:26:10.733Z,96563.13
2022-10-08T11:29:19.826Z,96568.84
2022-10-08T11:32:22.053Z,96570.03
2022-10-08T11:35:29.285Z,96571.53
2022-10-08T11:38:47.588Z,96563.00
2022-10-08T11:41:54.163Z,96565.69
2022-10-08T11:45:13.455Z,96561.69
2022-10-08T11:48:35.778Z,96557.63
2022-10-08T11:51:49.958Z,96560.78
2022-10-08T11:54:55.877Z,96562.06
2022-10-08T11:58:08.464Z,96555.69
2022-10-08T12:01:10.940Z,96557.19
2022-10-08T12:04:22.035Z,96555.78
2022-10-08T12:07:34.422Z,96556.44
2022-10-08T12:10:38.091Z,96556.94
2022-10-08T12:13:39.745Z,96558.97
2022-10-08T12:16:47.711Z,96559.63
2022-10-08T12:20:20.092Z,96561.28
2022-10-08T12:23:21.759Z,96561.94
2022-10-08T12:26:23.435Z,96564.63
2022-10-08T12:29:48.309Z,96550.50
2022-10-08T12:32:51.092Z,96538.94
2022-10-08T12:36:12.979Z,96548.19
2022-10-08T12:39:27.937Z,96545.69
2022-10-08T12:42:37.486Z,96539.63
2022-10-08T12:45:55.907Z,96548.75
2022-10-08T12:49:22.467Z,96551.44
2022-10-08T12:52:24.640Z,96545.56
2022-10-08T12:55:26.841Z,96542.41
2022-10-08T12:58:35.436Z,96538.56
2022-10-08T13:01:37.438Z,96547.22
2022-10-08T13:04:46.105Z,96551.47
2022-10-08T13:07:48.048Z,96553.00
2022-10-08T13:10:49.879Z,96549.84
2022-10-08T13:13:51.609Z,96547.88
2022-10-08T13:16:53.615Z,96552.97
2022-10-08T13:20:11.760Z,96559.88
2022-10-08T13:23:32.397Z,96553.19
2022-10-08T13:26:45.888Z,96546.47
2022-10-08T13:29:47.620Z,96552.22
2022-10-08T13:32:49.277Z,96561.16
2022-10-08T13:35:54.050Z,96559.47
2022-10-08T13:38:55.717Z,96557.78
2022-10-08T13:42:01.389Z,96554.25
2022-10-08T13:45:05.122Z,96555.25
2022-10-08T13:48:12.121Z,96549.25
2022-10-08T13:51:14.075Z,96549.25
2022-10-08T13:54:25.965Z,96545.06
2022-10-08T13:57:27.641Z,96547.38
2022-10-08T14:00:31.608Z,96557.66
2022-10-08T14:03:33.283Z,96566.56
2022-10-08T14:06:35.326Z,96565.06
2022-10-08T14:09:36.983Z,96564.22
2022-10-08T14:12:38.671Z,96560.69
2022-10-08T14:15:41.111Z,96558.00
2022-10-08T14:18:42.756Z,96565.22
2022-10-08T14:21:45.102Z,96562.53
2022-10-08T14:24:46.859Z,96560.06
2022-10-08T14:27:49.157Z,96566.06
2022-10-08T14:30:50.944Z,96564.22
2022-10-08T14:33:52.583Z,96561.53
2022-10-08T14:36:55.706Z,96565.06
2022-10-08T14:39:57.422Z,96571.94
2022-10-08T14:42:59.085Z,96562.88
2022-10-08T14:46:00.777Z,96562.88
2022-10-08T14:49:04.825Z,96567.03
2022-10-08T14:52:06.514Z,96562.31
2022-10-08T14:55:08.744Z,96557.97
2022-10-08T14:58:10.414Z,96573.94
2022-10-08T15:01:12.086Z,96567.53
2022-10-08T15:04:17.648Z,96570.22
2022-10-08T15:07:19.274Z,96569.56
2022-10-08T15:10:20.908Z,96581.69
2022-10-08T15:13:22.610Z,96578.34
2022-10-08T15:16:24.315Z,96581.19
2022-10-08T15:19:26.271Z,96589.63
2022-10-08T15:22:28.018Z,96586.41
2022-10-08T15:25:29.922Z,96594.66
2022-10-08T15:28:32.385Z,96602.09
2022-10-08T15:31:34.155Z,96603.44
2022-10-08T15:34:35.868Z,96608.16
2022-10-08T15:37:38.212Z,96614.06
2022-10-08T15:40:39.812Z,96617.75
2022-10-08T15:43:42.036Z,96618.13
2022-10-08T15:46:44.316Z,96617.59
2022-10-08T15:49:46.249Z,96616.28
2022-10-08T15:52:50.354Z,96628.06
2022-10-08T15:55:56.090Z,96633.75
2022-10-08T15:58:59.599Z,96634.97
2022-10-08T16:02:01.662Z,96638.81
2022-10-08T16:05:03.549Z,96636.66
2022-10-08T16:08:08.741Z,96633.47
2022-10-08T16:11:16.304Z,96643.56
2022-10-08T16:14:23.662Z,96640.38
2022-10-08T16:17:26.831Z,96649.78
2022-10-08T16:20:28.428Z,96653.00
2022-10-08T16:23:32.743Z,96657.03
2022-10-08T16:26:35.599Z,96660.75
2022-10-08T16:29:37.278Z,96665.78
2022-10-08T16:32:38.957Z,96661.59
2022-10-08T16:35:40.925Z,96662.91
2022-10-08T16:38:42.651Z,96678.38
2022-10-08T16:41:44.864Z,96678.03
2022-10-08T16:44:46.588Z,96683.91
2022-10-08T16:47:48.252Z,96683.09
2022-10-08T16:50:49.830Z,96687.59
2022-10-08T16:53:54.092Z,96689.47
2022-10-08T16:56:56.699Z,96692.47
2022-10-08T17:00:00.213Z,96694.44
2022-10-08T17:03:02.080Z,96702.63
2022-10-08T17:06:04.144Z,96715.34
2022-10-08T17:09:06.383Z,96720.19
2022-10-08T17:12:08.361Z,96721.66
2022-10-08T17:15:10.621Z,96718.09
2022-10-08T17:18:12.316Z,96724.59
2022-10-08T17:21:14.640Z,96735.59
2022-10-08T17:24:16.499Z,96735.03
2022-10-08T17:27:18.109Z,96739.34
2022-10-08T17:30:19.972Z,96737.59
2022-10-08T17:33:21.629Z,96744.75
2022-10-08T17:36:27.861Z,96740.31
2022-10-08T17:39:31.692Z,96749.13
2022-10-08T17:42:35.908Z,96750.91
2022-10-08T17:45:37.517Z,96756.84
2022-10-08T17:48:39.377Z,96754.97
2022-10-08T17:51:41.394Z,96753.91
2022-10-08T17:54:43.040Z,96764.53
2022-10-08T17:57:44.717Z,96764.31
2022-10-08T18:00:46.347Z,96772.09
2022-10-08T18:03:53.410Z,96770.34
2022-10-08T18:06:59.792Z,96774.47
2022-10-08T18:10:05.976Z,96780.59
2022-10-08T18:13:07.586Z,96788.19
2022-10-08T18:16:12.830Z,96789.78
2022-10-08T18:19:14.509Z,96794.91
2022-10-08T18:22:16.960Z,96801.69
2022-10-08T18:25:18.701Z,96803.28
2022-10-08T18:28:20.435Z,96814.56
2022-10-08T18:31:24.166Z,96818.69
2022-10-08T18:34:25.840Z,96821.91
2022-10-08T18:37:27.516Z,96828.69
2022-10-08T18:40:30.953Z,96830.28
2022-10-08T18:43:34.861Z,96833.66
2022-10-08T18:46:37.594Z,96840.44
2022-10-08T18:49:39.268Z,96844.69
2022-10-08T18:52:40.960Z,96845.22
2022-10-08T18:55:49.311Z,96845.81
2022-10-08T18:58:53.084Z,96856.22
2022-10-08T19:01:58.958Z,96852.44
2022-10-08T19:05:01.060Z,96855.50
2022-10-08T19:08:02.720Z,96861.28
2022-10-08T19:11:19.685Z,96867.88
2022-10-08T19:14:22.674Z,96863.09
2022-10-08T19:17:24.296Z,96872.53
2022-10-08T19:20:25.933Z,96872.97
2022-10-08T19:23:27.589Z,96873.50
2022-10-08T19:26:32.531Z,96883.63
2022-10-08T19:29:36.057Z,96886.97
2022-10-08T19:32:37.832Z,96889.22
2022-10-08T19:35:41.654Z,96893.13
2022-10-08T19:38:43.566Z,96899.03
2022-10-08T19:41:45.945Z,96902.97
2022-10-08T19:44:47.572Z,96914.88
2022-10-08T19:47:49.261Z,96912.75
2022-10-08T19:50:50.885Z,96916.69
2022-10-08T19:53:53.136Z,96922.28
2022-10-08T19:56:55.920Z,96933.38
2022-10-08T19:59:57.710Z,96936.28
2022-10-08T20:02:59.399Z,96935.03
2022-10-08T20:06:12.940Z,96937.09
2022-10-08T20:09:14.707Z,96942.84
2022-10-08T20:12:16.373Z,96948.59
2022-10-08T20:15:18.001Z,96946.88
2022-10-08T20:18:19.636Z,96949.13
2022-10-08T20:21:22.739Z,96949.38
2022-10-08T20:24:24.431Z,96956.78
2022-10-08T20:27:26.115Z,96965.91
2022-10-08T20:30:27.797Z,96960.09
2022-10-08T20:33:29.419Z,96971.88
2022-10-08T20:36:32.151Z,96977.47
2022-10-08T20:39:33.862Z,96973.38
2022-10-08T20:42:35.457Z,96965.66
2022-10-08T20:45:37.077Z,96973.19
2022-10-08T20:48:40.624Z,96970.78
2022-10-08T20:51:43.556Z,96970.22
2022-10-08T20:54:45.167Z,96966.09
2022-10-08T20:57:46.823Z,96971.69
2022-10-08T21:00:48.508Z,96973.72
2022-10-08T21:03:51.251Z,96974.25
2022-10-08T21:06:53.571Z,96982.53
2022-10-08T21:09:55.355Z,96976.72
2022-10-08T21:12:56.900Z,96980.50
2022-10-08T21:16:03.640Z,96988.72
2022-10-08T21:19:07.976Z,96982.94
2022-10-08T21:22:09.636Z,96980.53
2022-10-08T21:25:11.247Z,96983.59
2022-10-08T21:28:12.878Z,96983.59
2022-10-08T21:31:15.838Z,96984.56
2022-10-08T21:34:17.801Z,96988.44
2022-10-08T21:37:19.401Z,96990.28
2022-10-08T21:40:21.107Z,96997.53
2022-10-08T21:43:23.110Z,97001.41
2022-10-08T21:46:34.429Z,97007.84
2022-10-08T21:49:36.024Z,97006.13
2022-10-08T21:52:37.656Z,97005.28
2022-10-08T21:55:39.273Z,97004.72
2022-10-08T21:58:46.934Z,97004.72
2022-10-08T22:01:50.487Z,96998.78
2022-10-08T22:04:52.161Z,96999.75
2022-10-08T22:07:53.727Z,97007.00
2022-10-08T22:10:56.427Z,97002.69
2022-10-08T22:13:58.048Z,97002.78
2022-10-08T22:16:59.817Z,96991.53
2022-10-08T22:20:01.456Z,96992.78
2022-10-08T22:23:03.182Z,96999.06
2022-10-08T22:26:10.919Z,96991.31
2022-10-08T22:29:13.134Z,96992.44
2022-10-08T22:32:14.785Z,96997.13
2022-10-08T22:35:16.496Z,96993.78
2022-10-08T22:38:18.082Z,96991.22
2022-10-08T22:41:26.777Z,96989.66
2022-10-08T22:44:28.446Z,96993.53
2022-10-08T22:47:30.056Z,96990.16
2022-10-08T22:50:35.380Z,96988.69
2022-10-08T22:53:37.726Z,96980.97
2022-10-08T22:56:39.397Z,96992.69
2022-10-08T22:59:41.108Z,96983.16
2022-10-08T23:02:42.723Z,96980.88
2022-10-08T23:05:44.324Z,96988.84
2022-10-08T23:08:48.007Z,96986.56
2022-10-08T23:11:49.614Z,96981.34
2022-10-08T23:14:51.318Z,96976.31
2022-10-08T23:17:52.904Z,96981.72
2022-10-08T23:20:54.738Z,96978.47
2022-10-08T23:23:57.427Z,96976.06
2022-10-08T23:26:59.072Z,96978.09
2022-10-08T23:30:01.751Z,96984.50
2022-10-08T23:33:03.412Z,96979.44
2022-10-08T23:36:17.648Z,96976.16
2022-10-08T23:39:19.858Z,96978.22
2022-10-08T23:42:23.746Z,96973.28
2022-10-08T23:45:25.403Z,96977.88
2022-10-08T23:48:27.033Z,96980.88
2022-10-08T23:51:31.608Z,96973.03
2022-10-08T23:54:33.266Z,96980.38
2022-10-08T23:57:34.886Z,96984.97
